sensor_id;sensor_type;location;lat;lon;timestamp;P1;durP1;ratioP1;P2;durP2;ratioP2
64353;SDS011;50681;53.334;-6.536;2023-07-28T00:01:32;4.03;;;1.70;;
64353;SDS011;50681;53.334;-6.536;2023-07-28T00:03:57;3.40;;;1.30;;
64353;SDS011;50681;53.334;-6.536;2023-07-28T00:06:24;4.25;;;1.70;;
64353;SDS011;50681;53.334;-6.536;2023-07-28T00:08:50;4.40;;;1.60;;
64353;SDS011;50681;53.334;-6.536;2023-07-28T00:11:15;3.75;;;1.73;;
64353;SDS011;50681;53.334;-6.536;2023-07-28T00:13:42;4.40;;;1.38;;
64353;SDS011;50681;53.334;-6.536;2023-07-28T00:16:08;5.78;;;1.58;;
64353;SDS011;50681;53.334;-6.536;2023-07-28T00:18:34;2.80;;;1.20;;
64353;SDS011;50681;53.334;-6.536;2023-07-28T00:21:00;8.10;;;1.65;;
64353;SDS011;50681;53.334;-6.536;2023-07-28T00:23:26;5.15;;;1.52;;
64353;SDS011;50681;53.334;-6.536;2023-07-28T00:25:51;3.00;;;1.40;;
64353;SDS011;50681;53.334;-6.536;2023-07-28T00:28:17;9.50;;;1.30;;
64353;SDS011;50681;53.334;-6.536;2023-07-28T00:30:44;3.92;;;1.05;;
64353;SDS011;50681;53.334;-6.536;2023-07-28T00:33:09;4.55;;;1.70;;
64353;SDS011;50681;53.334;-6.536;2023-07-28T00:35:34;3.80;;;1.70;;
64353;SDS011;50681;53.334;-6.536;2023-07-28T00:38:00;4.00;;;1.60;;
64353;SDS011;50681;53.334;-6.536;2023-07-28T00:40:26;6.57;;;1.67;;
64353;SDS011;50681;53.334;-6.536;2023-07-28T00:42:51;2.50;;;1.40;;
64353;SDS011;50681;53.334;-6.536;2023-07-28T00:45:17;5.83;;;1.60;;
64353;SDS011;50681;53.334;-6.536;2023-07-28T00:47:42;4.63;;;1.60;;
64353;SDS011;50681;53.334;-6.536;2023-07-28T00:50:08;3.65;;;1.45;;
64353;SDS011;50681;53.334;-6.536;2023-07-28T00:52:35;6.07;;;1.65;;
64353;SDS011;50681;53.334;-6.536;2023-07-28T00:55:01;5.88;;;1.30;;
64353;SDS011;50681;53.334;-6.536;2023-07-28T00:57:27;5.43;;;1.55;;
64353;SDS011;50681;53.334;-6.536;2023-07-28T00:59:52;3.03;;;1.60;;
64353;SDS011;50681;53.334;-6.536;2023-07-28T01:02:18;8.05;;;1.67;;
64353;SDS011;50681;53.334;-6.536;2023-07-28T01:04:44;5.15;;;1.80;;
64353;SDS011;50681;53.334;-6.536;2023-07-28T01:07:16;4.40;;;1.67;;
64353;SDS011;50681;53.334;-6.536;2023-07-28T01:10:07;4.75;;;1.67;;
64353;SDS011;50681;53.334;-6.536;2023-07-28T01:12:51;5.72;;;1.70;;
64353;SDS011;50681;53.334;-6.536;2023-07-28T01:15:17;3.75;;;1.60;;
64353;SDS011;50681;53.334;-6.536;2023-07-28T01:17:42;5.20;;;2.05;;
64353;SDS011;50681;53.334;-6.536;2023-07-28T01:20:08;5.72;;;1.50;;
64353;SDS011;50681;53.334;-6.536;2023-07-28T01:25:27;5.40;;;1.52;;
64353;SDS011;50681;53.334;-6.536;2023-07-28T01:28:01;2.63;;;1.23;;
64353;SDS011;50681;53.334;-6.536;2023-07-28T01:30:28;4.68;;;1.70;;
64353;SDS011;50681;53.334;-6.536;2023-07-28T01:32:54;4.90;;;1.80;;
64353;SDS011;50681;53.334;-6.536;2023-07-28T01:35:21;3.33;;;1.60;;
64353;SDS011;50681;53.334;-6.536;2023-07-28T01:37:47;4.85;;;1.48;;
64353;SDS011;50681;53.334;-6.536;2023-07-28T01:40:16;6.60;;;1.73;;
64353;SDS011;50681;53.334;-6.536;2023-07-28T01:42:42;5.85;;;1.77;;
64353;SDS011;50681;53.334;-6.536;2023-07-28T01:45:07;2.80;;;1.40;;
64353;SDS011;50681;53.334;-6.536;2023-07-28T01:47:33;6.30;;;1.95;;
64353;SDS011;50681;53.334;-6.536;2023-07-28T01:49:59;5.07;;;1.57;;
64353;SDS011;50681;53.334;-6.536;2023-07-28T01:52:24;6.97;;;1.70;;
64353;SDS011;50681;53.334;-6.536;2023-07-28T01:54:50;7.93;;;1.80;;
64353;SDS011;50681;53.334;-6.536;2023-07-28T01:57:16;5.60;;;1.60;;
64353;SDS011;50681;53.334;-6.536;2023-07-28T01:59:41;5.05;;;1.83;;
64353;SDS011;50681;53.334;-6.536;2023-07-28T02:02:07;4.93;;;1.92;;
64353;SDS011;50681;53.334;-6.536;2023-07-28T02:04:34;4.75;;;1.60;;
64353;SDS011;50681;53.334;-6.536;2023-07-28T02:07:00;4.50;;;1.75;;
64353;SDS011;50681;53.334;-6.536;2023-07-28T02:09:25;2.30;;;1.40;;
64353;SDS011;50681;53.334;-6.536;2023-07-28T02:11:51;3.35;;;1.30;;
64353;SDS011;50681;53.334;-6.536;2023-07-28T02:14:17;3.08;;;1.70;;
64353;SDS011;50681;53.334;-6.536;2023-07-28T02:16:42;9.23;;;1.80;;
64353;SDS011;50681;53.334;-6.536;2023-07-28T02:19:08;6.65;;;1.95;;
64353;SDS011;50681;53.334;-6.536;2023-07-28T02:21:33;10.13;;;1.70;;
64353;SDS011;50681;53.334;-6.536;2023-07-28T02:23:59;5.30;;;1.77;;
64353;SDS011;50681;53.334;-6.536;2023-07-28T02:28:51;4.85;;;1.67;;
64353;SDS011;50681;53.334;-6.536;2023-07-28T02:31:16;5.85;;;1.70;;
64353;SDS011;50681;53.334;-6.536;2023-07-28T02:33:42;5.00;;;1.70;;
64353;SDS011;50681;53.334;-6.536;2023-07-28T02:36:07;5.10;;;1.70;;
64353;SDS011;50681;53.334;-6.536;2023-07-28T02:38:33;6.40;;;1.70;;
64353;SDS011;50681;53.334;-6.536;2023-07-28T02:40:58;7.07;;;2.15;;
64353;SDS011;50681;53.334;-6.536;2023-07-28T02:43:24;4.17;;;1.70;;
64353;SDS011;50681;53.334;-6.536;2023-07-28T02:45:55;9.13;;;1.93;;
64353;SDS011;50681;53.334;-6.536;2023-07-28T02:48:22;4.68;;;1.67;;
64353;SDS011;50681;53.334;-6.536;2023-07-28T02:50:49;7.05;;;1.80;;
64353;SDS011;50681;53.334;-6.536;2023-07-28T02:53:15;6.10;;;1.70;;
64353;SDS011;50681;53.334;-6.536;2023-07-28T02:55:41;7.57;;;1.80;;
64353;SDS011;50681;53.334;-6.536;2023-07-28T03:01:32;4.95;;;1.70;;
64353;SDS011;50681;53.334;-6.536;2023-07-28T03:03:58;6.15;;;1.58;;
64353;SDS011;50681;53.334;-6.536;2023-07-28T03:06:25;6.25;;;1.77;;
64353;SDS011;50681;53.334;-6.536;2023-07-28T03:08:53;7.32;;;1.67;;
64353;SDS011;50681;53.334;-6.536;2023-07-28T03:11:18;5.20;;;1.80;;
64353;SDS011;50681;53.334;-6.536;2023-07-28T03:13:44;4.85;;;1.75;;
64353;SDS011;50681;53.334;-6.536;2023-07-28T03:16:09;4.05;;;1.60;;
64353;SDS011;50681;53.334;-6.536;2023-07-28T03:18:35;4.97;;;1.80;;
64353;SDS011;50681;53.334;-6.536;2023-07-28T03:21:00;5.38;;;1.55;;
64353;SDS011;50681;53.334;-6.536;2023-07-28T03:23:26;8.30;;;1.98;;
64353;SDS011;50681;53.334;-6.536;2023-07-28T03:25:52;4.22;;;1.65;;
64353;SDS011;50681;53.334;-6.536;2023-07-28T03:28:18;3.57;;;1.50;;
64353;SDS011;50681;53.334;-6.536;2023-07-28T03:30:44;3.95;;;1.95;;
64353;SDS011;50681;53.334;-6.536;2023-07-28T03:33:09;7.28;;;1.95;;
64353;SDS011;50681;53.334;-6.536;2023-07-28T03:35:35;7.00;;;1.88;;
64353;SDS011;50681;53.334;-6.536;2023-07-28T03:38:00;7.55;;;1.90;;
64353;SDS011;50681;53.334;-6.536;2023-07-28T03:40:26;8.97;;;2.00;;
64353;SDS011;50681;53.334;-6.536;2023-07-28T03:42:51;9.18;;;1.77;;
64353;SDS011;50681;53.334;-6.536;2023-07-28T03:45:17;2.78;;;1.65;;
64353;SDS011;50681;53.334;-6.536;2023-07-28T03:47:43;6.03;;;1.92;;
64353;SDS011;50681;53.334;-6.536;2023-07-28T03:50:09;15.27;;;2.13;;
64353;SDS011;50681;53.334;-6.536;2023-07-28T03:52:34;4.82;;;1.70;;
64353;SDS011;50681;53.334;-6.536;2023-07-28T03:55:00;5.47;;;1.70;;
64353;SDS011;50681;53.334;-6.536;2023-07-28T03:57:25;5.80;;;1.87;;
64353;SDS011;50681;53.334;-6.536;2023-07-28T03:59:50;6.43;;;1.93;;
64353;SDS011;50681;53.334;-6.536;2023-07-28T04:02:16;6.70;;;1.50;;
64353;SDS011;50681;53.334;-6.536;2023-07-28T04:04:41;6.30;;;2.00;;
64353;SDS011;50681;53.334;-6.536;2023-07-28T04:07:07;13.50;;;2.10;;
64353;SDS011;50681;53.334;-6.536;2023-07-28T04:09:34;7.65;;;1.90;;
64353;SDS011;50681;53.334;-6.536;2023-07-28T04:12:00;4.85;;;1.70;;
64353;SDS011;50681;53.334;-6.536;2023-07-28T04:14:25;5.83;;;1.73;;
64353;SDS011;50681;53.334;-6.536;2023-07-28T04:16:52;6.32;;;1.98;;
64353;SDS011;50681;53.334;-6.536;2023-07-28T04:19:17;3.97;;;1.50;;
64353;SDS011;50681;53.334;-6.536;2023-07-28T04:21:43;6.30;;;1.83;;
64353;SDS011;50681;53.334;-6.536;2023-07-28T04:24:08;9.00;;;2.00;;
64353;SDS011;50681;53.334;-6.536;2023-07-28T04:29:00;7.72;;;1.83;;
64353;SDS011;50681;53.334;-6.536;2023-07-28T04:31:25;3.47;;;1.67;;
64353;SDS011;50681;53.334;-6.536;2023-07-28T04:33:51;5.38;;;1.70;;
64353;SDS011;50681;53.334;-6.536;2023-07-28T04:36:16;7.80;;;1.83;;
64353;SDS011;50681;53.334;-6.536;2023-07-28T04:38:42;7.47;;;1.90;;
64353;SDS011;50681;53.334;-6.536;2023-07-28T04:41:07;5.47;;;1.80;;
64353;SDS011;50681;53.334;-6.536;2023-07-28T04:43:33;4.53;;;1.80;;
64353;SDS011;50681;53.334;-6.536;2023-07-28T04:45:58;6.33;;;1.90;;
64353;SDS011;50681;53.334;-6.536;2023-07-28T04:48:24;5.93;;;1.73;;
64353;SDS011;50681;53.334;-6.536;2023-07-28T04:50:49;9.57;;;2.08;;
64353;SDS011;50681;53.334;-6.536;2023-07-28T04:53:15;6.30;;;1.83;;
64353;SDS011;50681;53.334;-6.536;2023-07-28T04:55:40;5.33;;;2.10;;
64353;SDS011;50681;53.334;-6.536;2023-07-28T04:58:06;5.60;;;1.70;;
64353;SDS011;50681;53.334;-6.536;2023-07-28T05:00:31;5.37;;;1.77;;
64353;SDS011;50681;53.334;-6.536;2023-07-28T05:02:58;5.35;;;2.00;;
64353;SDS011;50681;53.334;-6.536;2023-07-28T05:05:23;6.00;;;1.90;;
64353;SDS011;50681;53.334;-6.536;2023-07-28T05:07:50;7.93;;;2.10;;
64353;SDS011;50681;53.334;-6.536;2023-07-28T05:10:16;10.25;;;2.22;;
64353;SDS011;50681;53.334;-6.536;2023-07-28T05:12:42;17.87;;;2.17;;
64353;SDS011;50681;53.334;-6.536;2023-07-28T05:17:35;8.43;;;1.90;;
64353;SDS011;50681;53.334;-6.536;2023-07-28T05:20:02;10.20;;;2.10;;
64353;SDS011;50681;53.334;-6.536;2023-07-28T05:22:29;13.85;;;2.22;;
64353;SDS011;50681;53.334;-6.536;2023-07-28T05:24:54;6.85;;;2.13;;
64353;SDS011;50681;53.334;-6.536;2023-07-28T05:27:20;5.00;;;1.80;;
64353;SDS011;50681;53.334;-6.536;2023-07-28T05:29:45;13.30;;;2.10;;
64353;SDS011;50681;53.334;-6.536;2023-07-28T05:32:11;6.03;;;2.22;;
64353;SDS011;50681;53.334;-6.536;2023-07-28T05:34:36;12.37;;;2.43;;
64353;SDS011;50681;53.334;-6.536;2023-07-28T05:37:01;13.40;;;2.40;;
64353;SDS011;50681;53.334;-6.536;2023-07-28T05:39:27;8.30;;;2.05;;
64353;SDS011;50681;53.334;-6.536;2023-07-28T05:41:55;8.57;;;2.07;;
64353;SDS011;50681;53.334;-6.536;2023-07-28T05:44:21;9.50;;;2.22;;
64353;SDS011;50681;53.334;-6.536;2023-07-28T05:46:46;9.23;;;2.00;;
64353;SDS011;50681;53.334;-6.536;2023-07-28T05:49:13;4.82;;;1.77;;
64353;SDS011;50681;53.334;-6.536;2023-07-28T05:51:39;8.40;;;2.17;;
64353;SDS011;50681;53.334;-6.536;2023-07-28T05:54:06;7.45;;;2.30;;
64353;SDS011;50681;53.334;-6.536;2023-07-28T05:56:32;7.55;;;2.15;;
64353;SDS011;50681;53.334;-6.536;2023-07-28T05:58:57;8.43;;;2.00;;
64353;SDS011;50681;53.334;-6.536;2023-07-28T06:01:23;7.87;;;2.30;;
64353;SDS011;50681;53.334;-6.536;2023-07-28T06:03:50;13.18;;;1.83;;
64353;SDS011;50681;53.334;-6.536;2023-07-28T06:06:17;9.35;;;2.33;;
64353;SDS011;50681;53.334;-6.536;2023-07-28T06:08:43;7.47;;;2.15;;
64353;SDS011;50681;53.334;-6.536;2023-07-28T06:11:09;5.43;;;2.10;;
64353;SDS011;50681;53.334;-6.536;2023-07-28T06:13:34;7.22;;;2.22;;
64353;SDS011;50681;53.334;-6.536;2023-07-28T06:16:00;6.72;;;2.00;;
64353;SDS011;50681;53.334;-6.536;2023-07-28T06:18:26;8.67;;;2.13;;
64353;SDS011;50681;53.334;-6.536;2023-07-28T06:20:51;6.03;;;2.00;;
64353;SDS011;50681;53.334;-6.536;2023-07-28T06:23:16;8.60;;;2.23;;
64353;SDS011;50681;53.334;-6.536;2023-07-28T06:25:42;7.20;;;1.87;;
64353;SDS011;50681;53.334;-6.536;2023-07-28T06:28:10;9.50;;;2.00;;
64353;SDS011;50681;53.334;-6.536;2023-07-28T06:33:01;4.60;;;2.05;;
64353;SDS011;50681;53.334;-6.536;2023-07-28T06:35:28;6.63;;;1.83;;
64353;SDS011;50681;53.334;-6.536;2023-07-28T06:37:53;7.93;;;1.95;;
64353;SDS011;50681;53.334;-6.536;2023-07-28T06:40:19;7.93;;;2.07;;
64353;SDS011;50681;53.334;-6.536;2023-07-28T06:42:45;4.55;;;2.05;;
64353;SDS011;50681;53.334;-6.536;2023-07-28T06:45:11;7.47;;;1.80;;
64353;SDS011;50681;53.334;-6.536;2023-07-28T06:47:39;8.85;;;1.70;;
64353;SDS011;50681;53.334;-6.536;2023-07-28T06:50:05;7.22;;;1.63;;
64353;SDS011;50681;53.334;-6.536;2023-07-28T06:52:31;10.45;;;1.90;;
64353;SDS011;50681;53.334;-6.536;2023-07-28T06:54:56;14.70;;;2.00;;
64353;SDS011;50681;53.334;-6.536;2023-07-28T06:57:21;5.67;;;1.90;;
64353;SDS011;50681;53.334;-6.536;2023-07-28T06:59:47;7.30;;;2.15;;
64353;SDS011;50681;53.334;-6.536;2023-07-28T07:02:13;6.30;;;2.10;;
64353;SDS011;50681;53.334;-6.536;2023-07-28T07:04:39;5.60;;;1.73;;
64353;SDS011;50681;53.334;-6.536;2023-07-28T07:07:04;7.23;;;1.83;;
64353;SDS011;50681;53.334;-6.536;2023-07-28T07:09:30;7.45;;;1.90;;
64353;SDS011;50681;53.334;-6.536;2023-07-28T07:11:55;3.45;;;1.60;;
64353;SDS011;50681;53.334;-6.536;2023-07-28T07:14:21;4.63;;;1.70;;
64353;SDS011;50681;53.334;-6.536;2023-07-28T07:16:46;3.83;;;1.67;;
64353;SDS011;50681;53.334;-6.536;2023-07-28T07:19:12;9.10;;;1.93;;
64353;SDS011;50681;53.334;-6.536;2023-07-28T07:21:38;5.53;;;1.80;;
64353;SDS011;50681;53.334;-6.536;2023-07-28T07:24:04;4.27;;;1.57;;
64353;SDS011;50681;53.334;-6.536;2023-07-28T07:26:30;8.18;;;1.98;;
64353;SDS011;50681;53.334;-6.536;2023-07-28T07:28:56;4.88;;;1.83;;
64353;SDS011;50681;53.334;-6.536;2023-07-28T07:31:23;3.70;;;1.52;;
64353;SDS011;50681;53.334;-6.536;2023-07-28T07:33:48;8.02;;;1.88;;
64353;SDS011;50681;53.334;-6.536;2023-07-28T07:36:15;6.15;;;1.92;;
64353;SDS011;50681;53.334;-6.536;2023-07-28T07:38:41;8.20;;;1.88;;
64353;SDS011;50681;53.334;-6.536;2023-07-28T07:41:07;5.78;;;1.50;;
64353;SDS011;50681;53.334;-6.536;2023-07-28T07:43:35;5.07;;;1.65;;
64353;SDS011;50681;53.334;-6.536;2023-07-28T07:46:01;3.58;;;1.63;;
64353;SDS011;50681;53.334;-6.536;2023-07-28T07:48:27;6.68;;;2.22;;
64353;SDS011;50681;53.334;-6.536;2023-07-28T07:50:52;5.23;;;1.43;;
64353;SDS011;50681;53.334;-6.536;2023-07-28T07:53:19;5.70;;;1.40;;
64353;SDS011;50681;53.334;-6.536;2023-07-28T07:55:45;6.68;;;1.80;;
64353;SDS011;50681;53.334;-6.536;2023-07-28T07:58:10;5.60;;;1.83;;
64353;SDS011;50681;53.334;-6.536;2023-07-28T08:00:37;5.32;;;1.60;;
64353;SDS011;50681;53.334;-6.536;2023-07-28T08:03:04;8.20;;;1.50;;
64353;SDS011;50681;53.334;-6.536;2023-07-28T08:05:30;7.78;;;1.60;;
64353;SDS011;50681;53.334;-6.536;2023-07-28T08:08:05;4.60;;;1.83;;
64353;SDS011;50681;53.334;-6.536;2023-07-28T08:10:32;6.63;;;1.33;;
64353;SDS011;50681;53.334;-6.536;2023-07-28T08:12:59;2.95;;;1.23;;
64353;SDS011;50681;53.334;-6.536;2023-07-28T08:15:25;4.28;;;1.58;;
64353;SDS011;50681;53.334;-6.536;2023-07-28T08:17:50;7.20;;;1.77;;
64353;SDS011;50681;53.334;-6.536;2023-07-28T08:20:17;7.00;;;1.50;;
64353;SDS011;50681;53.334;-6.536;2023-07-28T08:22:44;4.13;;;1.50;;
64353;SDS011;50681;53.334;-6.536;2023-07-28T08:25:11;6.38;;;1.25;;
64353;SDS011;50681;53.334;-6.536;2023-07-28T08:27:36;5.60;;;1.50;;
64353;SDS011;50681;53.334;-6.536;2023-07-28T08:30:02;4.75;;;1.38;;
64353;SDS011;50681;53.334;-6.536;2023-07-28T08:32:28;5.43;;;1.50;;
64353;SDS011;50681;53.334;-6.536;2023-07-28T08:34:54;5.72;;;1.75;;
64353;SDS011;50681;53.334;-6.536;2023-07-28T08:37:35;4.43;;;1.35;;
64353;SDS011;50681;53.334;-6.536;2023-07-28T08:40:00;5.40;;;1.45;;
64353;SDS011;50681;53.334;-6.536;2023-07-28T08:42:28;6.13;;;1.55;;
64353;SDS011;50681;53.334;-6.536;2023-07-28T08:44:54;9.75;;;1.75;;
64353;SDS011;50681;53.334;-6.536;2023-07-28T08:47:23;4.70;;;1.48;;
64353;SDS011;50681;53.334;-6.536;2023-07-28T08:49:55;4.97;;;1.58;;
64353;SDS011;50681;53.334;-6.536;2023-07-28T08:52:22;2.65;;;1.25;;
64353;SDS011;50681;53.334;-6.536;2023-07-28T08:54:49;11.38;;;1.60;;
64353;SDS011;50681;53.334;-6.536;2023-07-28T08:57:16;3.78;;;1.33;;
64353;SDS011;50681;53.334;-6.536;2023-07-28T08:59:41;4.65;;;1.50;;
64353;SDS011;50681;53.334;-6.536;2023-07-28T09:02:13;4.97;;;1.77;;
64353;SDS011;50681;53.334;-6.536;2023-07-28T09:04:41;3.17;;;1.10;;
64353;SDS011;50681;53.334;-6.536;2023-07-28T09:07:07;3.25;;;1.35;;
64353;SDS011;50681;53.334;-6.536;2023-07-28T09:09:33;5.75;;;1.20;;
64353;SDS011;50681;53.334;-6.536;2023-07-28T09:12:05;6.13;;;1.85;;
64353;SDS011;50681;53.334;-6.536;2023-07-28T09:14:34;5.97;;;1.35;;
64353;SDS011;50681;53.334;-6.536;2023-07-28T09:19:51;3.03;;;1.38;;
64353;SDS011;50681;53.334;-6.536;2023-07-28T09:22:18;10.52;;;1.80;;
64353;SDS011;50681;53.334;-6.536;2023-07-28T09:24:44;6.55;;;1.48;;
64353;SDS011;50681;53.334;-6.536;2023-07-28T09:27:18;5.60;;;1.15;;
64353;SDS011;50681;53.334;-6.536;2023-07-28T09:29:48;8.50;;;1.40;;
64353;SDS011;50681;53.334;-6.536;2023-07-28T09:32:15;5.45;;;1.67;;
64353;SDS011;50681;53.334;-6.536;2023-07-28T09:34:50;2.70;;;1.25;;
64353;SDS011;50681;53.334;-6.536;2023-07-28T09:37:32;9.43;;;1.52;;
64353;SDS011;50681;53.334;-6.536;2023-07-28T09:39:59;6.80;;;1.58;;
64353;SDS011;50681;53.334;-6.536;2023-07-28T09:42:29;5.95;;;1.23;;
64353;SDS011;50681;53.334;-6.536;2023-07-28T09:44:55;6.80;;;1.58;;
64353;SDS011;50681;53.334;-6.536;2023-07-28T09:47:21;4.00;;;1.17;;
64353;SDS011;50681;53.334;-6.536;2023-07-28T09:49:47;3.45;;;1.23;;
64353;SDS011;50681;53.334;-6.536;2023-07-28T09:52:15;5.07;;;1.10;;
64353;SDS011;50681;53.334;-6.536;2023-07-28T09:54:43;1.98;;;0.85;;
64353;SDS011;50681;53.334;-6.536;2023-07-28T09:57:13;7.85;;;1.30;;
64353;SDS011;50681;53.334;-6.536;2023-07-28T09:59:45;3.97;;;1.75;;
64353;SDS011;50681;53.334;-6.536;2023-07-28T10:02:17;5.18;;;1.50;;
64353;SDS011;50681;53.334;-6.536;2023-07-28T10:04:43;6.80;;;3.35;;
64353;SDS011;50681;53.334;-6.536;2023-07-28T10:07:09;4.22;;;1.58;;
64353;SDS011;50681;53.334;-6.536;2023-07-28T10:11:32;2.55;;;1.17;;
64353;SDS011;50681;53.334;-6.536;2023-07-28T10:13:58;3.25;;;1.10;;
64353;SDS011;50681;53.334;-6.536;2023-07-28T10:16:31;3.47;;;0.70;;
64353;SDS011;50681;53.334;-6.536;2023-07-28T10:19:03;1.73;;;0.80;;
64353;SDS011;50681;53.334;-6.536;2023-07-28T10:21:30;2.25;;;0.90;;
64353;SDS011;50681;53.334;-6.536;2023-07-28T10:23:57;9.85;;;1.20;;
64353;SDS011;50681;53.334;-6.536;2023-07-28T10:26:39;1.98;;;0.88;;
64353;SDS011;50681;53.334;-6.536;2023-07-28T10:29:15;3.75;;;1.00;;
64353;SDS011;50681;53.334;-6.536;2023-07-28T10:31:50;1.90;;;0.90;;
64353;SDS011;50681;53.334;-6.536;2023-07-28T10:34:17;1.85;;;0.90;;
64353;SDS011;50681;53.334;-6.536;2023-07-28T10:41:37;2.42;;;1.17;;
64353;SDS011;50681;53.334;-6.536;2023-07-28T10:44:03;2.97;;;0.95;;
64353;SDS011;50681;53.334;-6.536;2023-07-28T10:46:34;1.05;;;0.60;;
64353;SDS011;50681;53.334;-6.536;2023-07-28T10:49:17;2.50;;;0.90;;
64353;SDS011;50681;53.334;-6.536;2023-07-28T10:51:43;2.50;;;0.80;;
64353;SDS011;50681;53.334;-6.536;2023-07-28T10:54:11;1.92;;;0.95;;
64353;SDS011;50681;53.334;-6.536;2023-07-28T10:56:41;3.22;;;0.90;;
64353;SDS011;50681;53.334;-6.536;2023-07-28T10:59:16;2.08;;;0.60;;
64353;SDS011;50681;53.334;-6.536;2023-07-28T11:01:45;1.77;;;0.63;;
64353;SDS011;50681;53.334;-6.536;2023-07-28T11:04:17;2.72;;;0.82;;
64353;SDS011;50681;53.334;-6.536;2023-07-28T11:06:50;5.00;;;2.17;;
64353;SDS011;50681;53.334;-6.536;2023-07-28T11:09:17;1.10;;;0.65;;
64353;SDS011;50681;53.334;-6.536;2023-07-28T11:11:43;2.03;;;0.70;;
64353;SDS011;50681;53.334;-6.536;2023-07-28T11:14:10;0.60;;;0.50;;
64353;SDS011;50681;53.334;-6.536;2023-07-28T11:16:38;2.92;;;0.90;;
64353;SDS011;50681;53.334;-6.536;2023-07-28T11:19:09;5.30;;;0.95;;
64353;SDS011;50681;53.334;-6.536;2023-07-28T11:21:39;1.67;;;0.90;;
64353;SDS011;50681;53.334;-6.536;2023-07-28T11:24:08;1.85;;;1.00;;
64353;SDS011;50681;53.334;-6.536;2023-07-28T11:26:35;7.72;;;0.55;;
64353;SDS011;50681;53.334;-6.536;2023-07-28T11:29:03;1.45;;;0.70;;
64353;SDS011;50681;53.334;-6.536;2023-07-28T11:31:29;4.38;;;1.08;;
64353;SDS011;50681;53.334;-6.536;2023-07-28T11:33:55;3.42;;;1.00;;
64353;SDS011;50681;53.334;-6.536;2023-07-28T11:36:25;4.10;;;1.13;;
64353;SDS011;50681;53.334;-6.536;2023-07-28T11:38:52;2.63;;;0.90;;
64353;SDS011;50681;53.334;-6.536;2023-07-28T11:41:19;2.80;;;0.95;;
64353;SDS011;50681;53.334;-6.536;2023-07-28T11:43:47;3.45;;;0.93;;
64353;SDS011;50681;53.334;-6.536;2023-07-28T11:49:14;2.83;;;0.85;;
64353;SDS011;50681;53.334;-6.536;2023-07-28T11:51:42;6.43;;;1.15;;
64353;SDS011;50681;53.334;-6.536;2023-07-28T11:54:13;2.30;;;0.77;;
64353;SDS011;50681;53.334;-6.536;2023-07-28T11:56:40;1.77;;;0.80;;
64353;SDS011;50681;53.334;-6.536;2023-07-28T11:59:06;2.40;;;1.00;;
64353;SDS011;50681;53.334;-6.536;2023-07-28T12:01:32;2.35;;;0.88;;
64353;SDS011;50681;53.334;-6.536;2023-07-28T12:03:58;4.68;;;1.10;;
64353;SDS011;50681;53.334;-6.536;2023-07-28T12:06:28;4.75;;;1.38;;
64353;SDS011;50681;53.334;-6.536;2023-07-28T12:09:03;4.15;;;1.00;;
64353;SDS011;50681;53.334;-6.536;2023-07-28T12:11:30;4.70;;;1.35;;
64353;SDS011;50681;53.334;-6.536;2023-07-28T12:13:56;3.03;;;1.20;;
64353;SDS011;50681;53.334;-6.536;2023-07-28T12:16:31;6.20;;;1.38;;
64353;SDS011;50681;53.334;-6.536;2023-07-28T12:19:03;5.57;;;0.95;;
64353;SDS011;50681;53.334;-6.536;2023-07-28T12:21:29;8.50;;;1.50;;
64353;SDS011;50681;53.334;-6.536;2023-07-28T12:23:56;3.08;;;1.15;;
64353;SDS011;50681;53.334;-6.536;2023-07-28T12:26:22;5.63;;;1.23;;
64353;SDS011;50681;53.334;-6.536;2023-07-28T12:28:47;5.20;;;1.85;;
64353;SDS011;50681;53.334;-6.536;2023-07-28T12:31:13;4.72;;;1.27;;
64353;SDS011;50681;53.334;-6.536;2023-07-28T12:33:38;4.82;;;1.35;;
64353;SDS011;50681;53.334;-6.536;2023-07-28T12:36:04;7.40;;;1.60;;
64353;SDS011;50681;53.334;-6.536;2023-07-28T12:38:31;5.25;;;1.67;;
64353;SDS011;50681;53.334;-6.536;2023-07-28T12:40:56;3.28;;;1.60;;
64353;SDS011;50681;53.334;-6.536;2023-07-28T12:43:22;3.05;;;1.30;;
64353;SDS011;50681;53.334;-6.536;2023-07-28T12:45:47;4.38;;;1.38;;
64353;SDS011;50681;53.334;-6.536;2023-07-28T12:48:13;3.70;;;1.13;;
64353;SDS011;50681;53.334;-6.536;2023-07-28T12:50:39;2.97;;;1.15;;
64353;SDS011;50681;53.334;-6.536;2023-07-28T12:53:04;3.25;;;1.30;;
64353;SDS011;50681;53.334;-6.536;2023-07-28T12:55:30;4.13;;;1.10;;
64353;SDS011;50681;53.334;-6.536;2023-07-28T13:00:31;4.97;;;1.35;;
64353;SDS011;50681;53.334;-6.536;2023-07-28T13:03:00;5.28;;;1.40;;
64353;SDS011;50681;53.334;-6.536;2023-07-28T13:05:26;6.47;;;1.42;;
64353;SDS011;50681;53.334;-6.536;2023-07-28T13:07:52;6.03;;;1.58;;
64353;SDS011;50681;53.334;-6.536;2023-07-28T13:10:19;4.35;;;1.40;;
64353;SDS011;50681;53.334;-6.536;2023-07-28T13:12:44;2.53;;;1.30;;
64353;SDS011;50681;53.334;-6.536;2023-07-28T13:15:09;4.68;;;1.13;;
64353;SDS011;50681;53.334;-6.536;2023-07-28T13:20:01;5.60;;;1.38;;
64353;SDS011;50681;53.334;-6.536;2023-07-28T13:22:26;7.45;;;1.33;;
64353;SDS011;50681;53.334;-6.536;2023-07-28T13:24:52;2.05;;;1.02;;
64353;SDS011;50681;53.334;-6.536;2023-07-28T13:27:18;8.65;;;1.70;;
64353;SDS011;50681;53.334;-6.536;2023-07-28T13:29:44;4.30;;;1.20;;
64353;SDS011;50681;53.334;-6.536;2023-07-28T13:32:16;3.53;;;1.23;;
64353;SDS011;50681;53.334;-6.536;2023-07-28T13:34:42;4.53;;;1.38;;
64353;SDS011;50681;53.334;-6.536;2023-07-28T13:37:08;14.85;;;1.85;;
64353;SDS011;50681;53.334;-6.536;2023-07-28T13:39:34;5.00;;;1.27;;
64353;SDS011;50681;53.334;-6.536;2023-07-28T13:41:59;4.32;;;1.08;;
64353;SDS011;50681;53.334;-6.536;2023-07-28T13:44:25;2.85;;;1.25;;
64353;SDS011;50681;53.334;-6.536;2023-07-28T13:49:15;3.63;;;1.20;;
64353;SDS011;50681;53.334;-6.536;2023-07-28T13:51:41;6.05;;;0.95;;
64353;SDS011;50681;53.334;-6.536;2023-07-28T13:54:07;2.47;;;1.13;;
64353;SDS011;50681;53.334;-6.536;2023-07-28T13:58:57;3.88;;;1.15;;
64353;SDS011;50681;53.334;-6.536;2023-07-28T14:01:23;2.80;;;1.20;;
64353;SDS011;50681;53.334;-6.536;2023-07-28T14:03:48;6.95;;;1.40;;
64353;SDS011;50681;53.334;-6.536;2023-07-28T14:06:14;5.13;;;1.80;;
64353;SDS011;50681;53.334;-6.536;2023-07-28T14:08:42;1.75;;;1.00;;
64353;SDS011;50681;53.334;-6.536;2023-07-28T14:11:10;4.65;;;1.25;;
64353;SDS011;50681;53.334;-6.536;2023-07-28T14:16:01;4.18;;;1.17;;
64353;SDS011;50681;53.334;-6.536;2023-07-28T14:18:26;4.03;;;1.20;;
64353;SDS011;50681;53.334;-6.536;2023-07-28T14:23:27;3.97;;;1.38;;
64353;SDS011;50681;53.334;-6.536;2023-07-28T14:25:53;3.80;;;1.65;;
64353;SDS011;50681;53.334;-6.536;2023-07-28T14:28:19;7.53;;;1.63;;
64353;SDS011;50681;53.334;-6.536;2023-07-28T14:30:47;3.30;;;1.10;;
64353;SDS011;50681;53.334;-6.536;2023-07-28T14:35:45;4.78;;;1.35;;
64353;SDS011;50681;53.334;-6.536;2023-07-28T14:38:20;3.20;;;1.30;;
64353;SDS011;50681;53.334;-6.536;2023-07-28T14:40:51;4.72;;;1.40;;
64353;SDS011;50681;53.334;-6.536;2023-07-28T14:45:49;3.53;;;1.23;;
64353;SDS011;50681;53.334;-6.536;2023-07-28T14:48:18;1.85;;;0.80;;
64353;SDS011;50681;53.334;-6.536;2023-07-28T14:50:50;7.53;;;1.30;;
64353;SDS011;50681;53.334;-6.536;2023-07-28T14:53:35;3.70;;;1.10;;
64353;SDS011;50681;53.334;-6.536;2023-07-28T14:56:03;4.55;;;1.40;;
64353;SDS011;50681;53.334;-6.536;2023-07-28T14:58:31;2.65;;;1.20;;
64353;SDS011;50681;53.334;-6.536;2023-07-28T15:00:57;8.63;;;1.08;;
64353;SDS011;50681;53.334;-6.536;2023-07-28T15:03:25;3.10;;;1.13;;
64353;SDS011;50681;53.334;-6.536;2023-07-28T15:05:52;7.43;;;1.10;;
64353;SDS011;50681;53.334;-6.536;2023-07-28T15:10:42;3.85;;;1.25;;
64353;SDS011;50681;53.334;-6.536;2023-07-28T15:13:08;6.03;;;1.30;;
64353;SDS011;50681;53.334;-6.536;2023-07-28T15:15:34;2.63;;;0.98;;
64353;SDS011;50681;53.334;-6.536;2023-07-28T15:20:24;3.63;;;1.15;;
64353;SDS011;50681;53.334;-6.536;2023-07-28T15:22:50;5.18;;;1.00;;
64353;SDS011;50681;53.334;-6.536;2023-07-28T15:25:15;5.38;;;1.40;;